Time;durP1;ratioP1;P1;durP2;ratioP2;P2;SDS_P1;SDS_P2;PMS_P1;PMS_P2;Temp;Humidity;BMP_temperature;BMP_pressure;BME280_temperature;BME280_humidity;BME280_pressure;Samples;Min_cycle;Max_cycle;Signal;HPM_P1;HPM_P2
2023/08/24 00:01:17;;;;;;;4.70;4.30;;;;;;;;;;6156616;23;20482;-60
2023/08/24 00:03:47;;;;;;;4.80;4.50;;;;;;;;;;6156537;23;20414;-60
2023/08/24 00:06:14;;;;;;;4.87;4.50;;;;;;;;;;6156600;23;20407;-60
2023/08/24 00:08:41;;;;;;;5.07;4.67;;;;;;;;;;6156573;23;20438;-60
2023/08/24 00:11:08;;;;;;;4.93;4.47;;;;;;;;;;6156477;23;20411;-60
2023/08/24 00:13:35;;;;;;;6.33;4.67;;;;;;;;;;6156079;23;20940;-61
2023/08/24 00:16:04;;;;;;;4.60;4.30;;;;;;;;;;6156537;23;20458;-60
2023/08/24 00:18:30;;;;;;;4.43;4.03;;;;;;;;;;6156430;23;20406;-60
2023/08/24 00:20:59;;;;;;;6.53;5.37;;;;;;;;;;6156412;23;20438;-60
2023/08/24 00:23:26;;;;;;;5.73;4.73;;;;;;;;;;6156085;23;20954;-60
2023/08/24 00:25:53;;;;;;;7.43;4.93;;;;;;;;;;6156366;23;20505;-60
2023/08/24 00:28:20;;;;;;;4.87;4.47;;;;;;;;;;6156469;23;20486;-60
2023/08/24 00:30:47;;;;;;;5.10;4.70;;;;;;;;;;6156426;23;20497;-60
2023/08/24 00:33:14;;;;;;;5.00;4.50;;;;;;;;;;6156190;23;20407;-60
2023/08/24 00:35:41;;;;;;;5.57;5.00;;;;;;;;;;6155850;23;21016;-60
2023/08/24 00:38:09;;;;;;;5.67;5.07;;;;;;;;;;6156252;23;20406;-61
2023/08/24 00:40:36;;;;;;;5.53;5.07;;;;;;;;;;6156252;23;20445;-60
2023/08/24 00:43:03;;;;;;;4.77;4.20;;;;;;;;;;6156264;23;20494;-60
2023/08/24 00:45:33;;;;;;;4.57;4.27;;;;;;;;;;6156297;23;20437;-60
2023/08/24 00:47:59;;;;;;;4.97;4.57;;;;;;;;;;6156155;23;20418;-60
2023/08/24 00:50:26;;;;;;;4.57;4.13;;;;;;;;;;6155721;23;20830;-60
2023/08/24 00:52:54;;;;;;;5.00;4.70;;;;;;;;;;6156106;23;20438;-60
2023/08/24 00:55:22;;;;;;;4.80;4.40;;;;;;;;;;6156028;23;20442;-61
2023/08/24 00:57:50;;;;;;;5.37;4.97;;;;;;;;;;6156221;23;20730;-60
2023/08/24 01:00:17;;;;;;;5.60;5.20;;;;;;;;;;6156578;23;20493;-60
2023/08/24 01:02:44;;;;;;;5.73;5.23;;;;;;;;;;6155999;23;20771;-60
2023/08/24 01:05:12;;;;;;;5.00;4.60;;;;;;;;;;6156172;23;20411;-60
2023/08/24 01:07:40;;;;;;;5.70;4.90;;;;;;;;;;6156028;23;20414;-60
2023/08/24 01:10:08;;;;;;;6.10;5.53;;;;;;;;;;6156023;23;20435;-60
2023/08/24 01:12:43;;;;;;;5.43;5.03;;;;;;;;;;6155945;23;20418;-60
2023/08/24 01:15:13;;;;;;;5.33;4.83;;;;;;;;;;6155933;23;20458;-61
2023/08/24 01:17:40;;;;;;;5.40;5.00;;;;;;;;;;6155926;23;20457;-60
2023/08/24 01:20:09;;;;;;;5.60;5.10;;;;;;;;;;6155954;23;20411;-60
2023/08/24 01:22:43;;;;;;;6.43;5.90;;;;;;;;;;6155930;23;20776;-60
2023/08/24 01:25:13;;;;;;;4.80;4.40;;;;;;;;;;6155906;23;20402;-60
2023/08/24 01:27:42;;;;;;;6.57;5.97;;;;;;;;;;6156039;23;20399;-60
2023/08/24 01:30:09;;;;;;;4.90;4.60;;;;;;;;;;6155875;23;20445;-60
2023/08/24 01:32:37;;;;;;;5.60;4.67;;;;;;;;;;6155897;23;20494;-60
2023/08/24 01:35:05;;;;;;;5.67;5.13;;;;;;;;;;6155732;23;20816;-60
2023/08/24 01:37:32;;;;;;;5.40;5.00;;;;;;;;;;6155802;23;20439;-60
2023/08/24 01:40:05;;;;;;;6.00;5.57;;;;;;;;;;6155877;23;20491;-60
2023/08/24 01:42:33;;;;;;;7.43;5.57;;;;;;;;;;6155886;23;20387;-60
2023/08/24 01:45:04;;;;;;;6.13;5.53;;;;;;;;;;6155473;23;20490;-60
2023/08/24 01:47:31;;;;;;;5.23;4.87;;;;;;;;;;6155512;23;20986;-60
2023/08/24 01:49:59;;;;;;;5.13;4.83;;;;;;;;;;6155475;23;20513;-60
2023/08/24 01:52:26;;;;;;;4.97;4.67;;;;;;;;;;6155780;23;20486;-60
2023/08/24 01:54:53;;;;;;;5.03;4.73;;;;;;;;;;6155650;23;20807;-60
2023/08/24 01:57:20;;;;;;;5.77;5.30;;;;;;;;;;6155877;23;20788;-60
2023/08/24 01:59:47;;;;;;;5.70;5.30;;;;;;;;;;6155841;23;20481;-60
2023/08/24 02:02:15;;;;;;;5.53;5.13;;;;;;;;;;6155834;23;20487;-60
2023/08/24 02:04:42;;;;;;;4.80;4.50;;;;;;;;;;6155384;23;20981;-60
2023/08/24 02:07:09;;;;;;;5.13;4.73;;;;;;;;;;6155660;23;20506;-61
2023/08/24 02:09:36;;;;;;;5.77;5.17;;;;;;;;;;6155693;23;20414;-60
2023/08/24 02:12:02;;;;;;;5.63;5.10;;;;;;;;;;6155882;23;20462;-60
2023/08/24 02:14:29;;;;;;;6.37;5.77;;;;;;;;;;6155577;23;20430;-60
2023/08/24 02:16:56;;;;;;;4.97;4.57;;;;;;;;;;6155717;23;20407;-60
2023/08/24 02:19:25;;;;;;;6.20;5.47;;;;;;;;;;6155748;23;20518;-61
2023/08/24 02:21:51;;;;;;;5.20;4.80;;;;;;;;;;6155613;23;20505;-60
2023/08/24 02:24:18;;;;;;;5.30;4.90;;;;;;;;;;6155551;23;20438;-60
2023/08/24 02:26:45;;;;;;;5.67;5.17;;;;;;;;;;6155304;23;20961;-60
2023/08/24 02:29:12;;;;;;;6.10;5.50;;;;;;;;;;6155565;23;20490;-60
2023/08/24 02:31:40;;;;;;;6.10;5.47;;;;;;;;;;6155567;23;20497;-60
2023/08/24 02:34:07;;;;;;;6.33;5.73;;;;;;;;;;6155414;23;20407;-60
2023/08/24 02:36:35;;;;;;;6.27;4.90;;;;;;;;;;6155554;23;20494;-60
2023/08/24 02:39:02;;;;;;;6.17;5.77;;;;;;;;;;6155625;23;20954;-61
2023/08/24 02:41:29;;;;;;;5.70;5.30;;;;;;;;;;6155532;23;20494;-60
2023/08/24 02:43:56;;;;;;;5.33;4.80;;;;;;;;;;6155485;23;20408;-60
2023/08/24 02:46:23;;;;;;;5.70;5.23;;;;;;;;;;6155570;23;20502;-60
2023/08/24 02:48:50;;;;;;;6.37;5.77;;;;;;;;;;6155488;23;20538;-60
2023/08/24 02:51:17;;;;;;;6.60;5.50;;;;;;;;;;6155091;23;20434;-60
2023/08/24 02:53:45;;;;;;;5.63;4.97;;;;;;;;;;6155488;23;20897;-60
2023/08/24 02:56:12;;;;;;;5.97;5.43;;;;;;;;;;6155633;23;20490;-60
2023/08/24 02:58:39;;;;;;;5.17;4.77;;;;;;;;;;6157237;23;20434;-60
2023/08/24 03:01:07;;;;;;;5.07;4.57;;;;;;;;;;6157334;23;20438;-60
2023/08/24 03:03:34;;;;;;;5.70;5.10;;;;;;;;;;6157053;23;20414;-60
2023/08/24 03:06:02;;;;;;;7.10;5.83;;;;;;;;;;6157139;23;20417;-60
2023/08/24 03:08:29;;;;;;;5.77;5.20;;;;;;;;;;6157198;23;20494;-60
2023/08/24 03:10:57;;;;;;;4.87;4.57;;;;;;;;;;6157175;23;20439;-60
2023/08/24 03:13:24;;;;;;;6.47;5.77;;;;;;;;;;6156665;23;20958;-60
2023/08/24 03:15:52;;;;;;;5.60;5.10;;;;;;;;;;6156962;23;21014;-61
2023/08/24 03:18:18;;;;;;;4.80;4.50;;;;;;;;;;6157146;23;20407;-60
2023/08/24 03:20:46;;;;;;;5.40;5.00;;;;;;;;;;6157090;23;20513;-60
2023/08/24 03:23:13;;;;;;;5.73;5.00;;;;;;;;;;6157339;23;20450;-60
2023/08/24 03:25:40;;;;;;;5.67;5.27;;;;;;;;;;6157047;23;20493;-60
2023/08/24 03:28:09;;;;;;;5.43;4.93;;;;;;;;;;6157146;23;20809;-60
2023/08/24 03:30:37;;;;;;;5.27;4.97;;;;;;;;;;6156836;23;20498;-60
2023/08/24 03:33:04;;;;;;;4.30;4.07;;;;;;;;;;6156598;23;20407;-61
2023/08/24 03:35:31;;;;;;;6.00;5.43;;;;;;;;;;6156764;23;20526;-60
2023/08/24 03:37:58;;;;;;;5.70;5.20;;;;;;;;;;6156789;23;20490;-60
2023/08/24 03:40:25;;;;;;;5.83;5.37;;;;;;;;;;6156890;23;20783;-60
2023/08/24 03:42:53;;;;;;;6.83;5.40;;;;;;;;;;6156820;23;20494;-60
2023/08/24 03:45:21;;;;;;;5.30;5.00;;;;;;;;;;6156772;23;20445;-60
2023/08/24 03:47:48;;;;;;;5.53;5.13;;;;;;;;;;6156792;23;20490;-61
2023/08/24 03:50:15;;;;;;;5.80;5.30;;;;;;;;;;6156340;23;20531;-60
2023/08/24 03:52:42;;;;;;;5.60;5.17;;;;;;;;;;6156667;23;20413;-60
2023/08/24 03:55:09;;;;;;;6.00;5.20;;;;;;;;;;6156594;23;20521;-60
2023/08/24 03:57:37;;;;;;;5.13;4.73;;;;;;;;;;6156670;23;20489;-61
2023/08/24 04:00:05;;;;;;;7.43;6.67;;;;;;;;;;6156596;23;20408;-60
2023/08/24 04:02:34;;;;;;;5.17;4.77;;;;;;;;;;6156609;23;20407;-60
2023/08/24 04:05:00;;;;;;;5.77;5.27;;;;;;;;;;6156183;23;20498;-60
2023/08/24 04:07:27;;;;;;;5.60;5.10;;;;;;;;;;6156364;23;20495;-60
2023/08/24 04:09:54;;;;;;;8.63;5.70;;;;;;;;;;6156486;23;20441;-60
2023/08/24 04:12:21;;;;;;;5.60;5.20;;;;;;;;;;6156527;23;20772;-60
2023/08/24 04:14:48;;;;;;;5.73;5.33;;;;;;;;;;6156224;23;20589;-60
2023/08/24 04:17:15;;;;;;;4.90;4.60;;;;;;;;;;6156513;23;20407;-60
2023/08/24 04:19:44;;;;;;;5.40;5.07;;;;;;;;;;6156419;23;20418;-60
2023/08/24 04:22:10;;;;;;;5.03;4.63;;;;;;;;;;6156367;23;20407;-60
2023/08/24 04:24:37;;;;;;;5.37;4.80;;;;;;;;;;6156336;23;20489;-61
2023/08/24 04:27:04;;;;;;;5.73;5.20;;;;;;;;;;6156406;23;20493;-60
2023/08/24 04:29:32;;;;;;;5.13;4.73;;;;;;;;;;6156059;23;20485;-60
2023/08/24 04:31:58;;;;;;;5.83;5.30;;;;;;;;;;6156242;23;20522;-60
2023/08/24 04:34:26;;;;;;;6.00;5.50;;;;;;;;;;6155974;23;20919;-60
2023/08/24 04:36:55;;;;;;;29.00;10.20;;;;;;;;;;6156134;23;20443;-60
2023/08/24 04:39:22;;;;;;;6.57;5.97;;;;;;;;;;6156202;23;20454;-60
2023/08/24 04:41:49;;;;;;;5.40;5.10;;;;;;;;;;6156316;23;20439;-60
2023/08/24 04:44:16;;;;;;;6.00;5.60;;;;;;;;;;6156124;23;20490;-60
2023/08/24 04:46:42;;;;;;;19.93;6.67;;;;;;;;;;6156152;23;20411;-60
2023/08/24 04:49:09;;;;;;;7.53;5.70;;;;;;;;;;6155905;23;20486;-60
2023/08/24 04:51:36;;;;;;;5.20;4.90;;;;;;;;;;6156202;23;20468;-60
2023/08/24 04:54:05;;;;;;;5.50;5.10;;;;;;;;;;6156368;23;20406;-60
2023/08/24 04:56:32;;;;;;;5.80;4.47;;;;;;;;;;6156034;23;20525;-60
2023/08/24 04:59:00;;;;;;;6.40;4.80;;;;;;;;;;6156067;23;20461;-60
2023/08/24 05:01:27;;;;;;;5.70;5.13;;;;;;;;;;6156046;23;20403;-60
2023/08/24 05:03:54;;;;;;;5.90;5.00;;;;;;;;;;6155905;23;20431;-60
2023/08/24 05:06:21;;;;;;;6.70;5.13;;;;;;;;;;6156096;23;20489;-60
2023/08/24 05:08:48;;;;;;;6.43;5.50;;;;;;;;;;6155595;23;20978;-60
2023/08/24 05:11:18;;;;;;;5.53;4.97;;;;;;;;;;6155948;23;20482;-60
2023/08/24 05:13:46;;;;;;;7.10;5.33;;;;;;;;;;6156007;23;20479;-60
2023/08/24 05:16:13;;;;;;;13.73;6.73;;;;;;;;;;6165274;23;20469;-60
2023/08/24 05:18:40;;;;;;;5.60;5.20;;;;;;;;;;6155607;23;20494;-60
2023/08/24 05:21:07;;;;;;;4.77;4.40;;;;;;;;;;6155803;23;20490;-61
2023/08/24 05:23:34;;;;;;;5.00;4.33;;;;;;;;;;6155858;23;20490;-61
2023/08/24 05:26:02;;;;;;;4.83;4.30;;;;;;;;;;6156727;23;20486;-59
2023/08/24 05:28:31;;;;;;;8.43;3.83;;;;;;;;;;6155466;23;20407;-60
2023/08/24 05:30:58;;;;;;;4.77;3.60;;;;;;;;;;6155843;23;20775;-59
2023/08/24 05:33:25;;;;;;;4.47;4.10;;;;;;;;;;6155802;23;20802;-60
2023/08/24 05:35:53;;;;;;;3.53;3.30;;;;;;;;;;6155719;23;20529;-59
2023/08/24 05:38:20;;;;;;;3.60;3.37;;;;;;;;;;6155772;23;20414;-59
2023/08/24 05:40:49;;;;;;;6.80;3.40;;;;;;;;;;6155933;23;20498;-59
2023/08/24 05:43:16;;;;;;;3.23;2.93;;;;;;;;;;6156514;23;20467;-61
2023/08/24 05:45:44;;;;;;;3.80;3.00;;;;;;;;;;6155839;23;20489;-61
2023/08/24 05:48:12;;;;;;;4.60;3.60;;;;;;;;;;6155425;23;20969;-61
2023/08/24 05:50:43;;;;;;;3.73;3.43;;;;;;;;;;6152145;23;20517;-61
2023/08/24 05:53:10;;;;;;;4.17;3.73;;;;;;;;;;6155810;23;20813;-61
2023/08/24 05:55:38;;;;;;;3.10;2.80;;;;;;;;;;6155699;23;20525;-59
2023/08/24 05:58:05;;;;;;;3.10;2.90;;;;;;;;;;6155264;23;20918;-61
2023/08/24 06:00:32;;;;;;;2.80;2.70;;;;;;;;;;6155679;23;20438;-62
2023/08/24 06:03:01;;;;;;;3.30;3.00;;;;;;;;;;6155643;23;20429;-59
2023/08/24 06:05:27;;;;;;;3.00;2.80;;;;;;;;;;6155694;23;20802;-59
2023/08/24 06:07:54;;;;;;;5.90;3.50;;;;;;;;;;6155673;23;20454;-62
2023/08/24 06:10:22;;;;;;;3.03;2.60;;;;;;;;;;6155657;23;20402;-60
2023/08/24 06:12:49;;;;;;;3.30;3.00;;;;;;;;;;6155549;23;20409;-59
2023/08/24 06:15:15;;;;;;;3.20;2.90;;;;;;;;;;6155515;23;20434;-60
2023/08/24 06:17:43;;;;;;;3.30;3.10;;;;;;;;;;6155561;23;20494;-61
2023/08/24 06:20:12;;;;;;;3.07;2.87;;;;;;;;;;6155519;23;20406;-60
2023/08/24 06:22:39;;;;;;;3.40;3.10;;;;;;;;;;6155649;23;20406;-60
2023/08/24 06:25:08;;;;;;;2.80;2.40;;;;;;;;;;6155560;23;20445;-59
2023/08/24 06:27:35;;;;;;;3.40;3.10;;;;;;;;;;6155411;23;20490;-60
2023/08/24 06:30:03;;;;;;;3.87;2.97;;;;;;;;;;6155608;23;20429;-60
2023/08/24 06:32:30;;;;;;;2.93;2.67;;;;;;;;;;6157417;23;20399;-60
2023/08/24 06:34:57;;;;;;;2.70;2.50;;;;;;;;;;6157283;23;20403;-60
2023/08/24 06:37:25;;;;;;;2.40;2.23;;;;;;;;;;6157218;23;20473;-60
2023/08/24 06:39:52;;;;;;;3.67;3.03;;;;;;;;;;6157257;23;20494;-60
2023/08/24 06:42:19;;;;;;;2.87;2.00;;;;;;;;;;6157088;23;20489;-60
2023/08/24 06:44:48;;;;;;;4.30;2.70;;;;;;;;;;6157152;23;20438;-59
2023/08/24 06:47:15;;;;;;;2.37;2.13;;;;;;;;;;6157142;23;20441;-60
2023/08/24 06:49:42;;;;;;;2.83;2.60;;;;;;;;;;6157046;23;20518;-59
2023/08/24 06:52:09;;;;;;;2.77;2.30;;;;;;;;;;6154304;23;20446;-59
2023/08/24 06:54:37;;;;;;;3.40;2.53;;;;;;;;;;6156978;23;20418;-59
2023/08/24 06:57:04;;;;;;;2.97;2.63;;;;;;;;;;6156812;23;20525;-59
2023/08/24 06:59:31;;;;;;;2.50;2.27;;;;;;;;;;6157196;23;20732;-59
2023/08/24 07:01:58;;;;;;;2.30;2.10;;;;;;;;;;6156548;23;20906;-59
2023/08/24 07:04:26;;;;;;;3.00;2.80;;;;;;;;;;6156798;23;20713;-59
2023/08/24 07:06:53;;;;;;;2.50;2.30;;;;;;;;;;6156705;23;20407;-58
2023/08/24 07:09:20;;;;;;;3.40;2.50;;;;;;;;;;6156272;23;20903;-60
2023/08/24 07:11:49;;;;;;;2.53;2.30;;;;;;;;;;6156282;23;20429;-58
2023/08/24 07:14:16;;;;;;;3.70;2.23;;;;;;;;;;6156098;23;20465;-60
2023/08/24 07:16:43;;;;;;;2.60;2.20;;;;;;;;;;6156045;23;20439;-58
2023/08/24 07:19:10;;;;;;;2.73;2.53;;;;;;;;;;6156870;23;20407;-58
2023/08/24 07:21:37;;;;;;;2.60;2.40;;;;;;;;;;6156799;23;20411;-58
2023/08/24 07:24:04;;;;;;;2.27;2.17;;;;;;;;;;6156615;23;20442;-59
2023/08/24 07:26:31;;;;;;;3.60;2.20;;;;;;;;;;6156515;23;20490;-59
2023/08/24 07:28:59;;;;;;;2.67;2.47;;;;;;;;;;6156505;23;20411;-59
2023/08/24 07:31:26;;;;;;;2.07;1.97;;;;;;;;;;6156332;23;20435;-59
2023/08/24 07:33:53;;;;;;;6.50;2.30;;;;;;;;;;6156192;23;20439;-59
2023/08/24 07:36:20;;;;;;;2.13;2.03;;;;;;;;;;6156176;23;20521;-59
2023/08/24 07:38:47;;;;;;;4.50;2.30;;;;;;;;;;6156341;23;20407;-58
2023/08/24 07:41:14;;;;;;;3.37;2.57;;;;;;;;;;6156260;23;20437;-59
2023/08/24 07:43:41;;;;;;;2.77;2.13;;;;;;;;;;6155861;23;20486;-60
2023/08/24 07:46:09;;;;;;;3.57;2.23;;;;;;;;;;6156185;23;20489;-59
2023/08/24 07:48:36;;;;;;;3.43;2.10;;;;;;;;;;6156166;23;20490;-59
2023/08/24 07:51:03;;;;;;;2.30;2.10;;;;;;;;;;6155695;23;20502;-58
2023/08/24 07:53:30;;;;;;;3.30;2.13;;;;;;;;;;6156241;23;20462;-63
2023/08/24 07:55:57;;;;;;;5.70;2.53;;;;;;;;;;6156083;23;20407;-59
2023/08/24 07:58:24;;;;;;;3.97;2.40;;;;;;;;;;6156095;23;20411;-59
2023/08/24 08:00:51;;;;;;;4.83;2.33;;;;;;;;;;6156376;23;20407;-58
2023/08/24 08:03:20;;;;;;;2.47;2.07;;;;;;;;;;6156234;23;20434;-57
2023/08/24 08:05:47;;;;;;;2.97;2.10;;;;;;;;;;6165781;23;20743;-59
2023/08/24 08:08:14;;;;;;;2.33;1.97;;;;;;;;;;6156508;23;20489;-60
2023/08/24 08:10:42;;;;;;;2.63;1.93;;;;;;;;;;6156571;23;20776;-60
2023/08/24 08:13:10;;;;;;;2.57;1.90;;;;;;;;;;6156254;23;20415;-60
2023/08/24 08:15:38;;;;;;;2.87;2.07;;;;;;;;;;6155999;23;20411;-61
2023/08/24 08:18:05;;;;;;;3.00;1.80;;;;;;;;;;6155820;23;20481;-60
2023/08/24 08:20:33;;;;;;;3.10;2.10;;;;;;;;;;6155785;23;20489;-59
2023/08/24 08:23:00;;;;;;;2.40;2.20;;;;;;;;;;6155671;23;20438;-59
2023/08/24 08:25:28;;;;;;;2.30;1.97;;;;;;;;;;6156001;23;20418;-58
2023/08/24 08:27:55;;;;;;;3.30;2.33;;;;;;;;;;6155832;23;20553;-58
2023/08/24 08:30:21;;;;;;;4.50;2.70;;;;;;;;;;6155915;23;20772;-57
2023/08/24 08:32:50;;;;;;;3.10;2.10;;;;;;;;;;6156031;23;20403;-57
2023/08/24 08:35:17;;;;;;;2.20;2.10;;;;;;;;;;6156024;23;20410;-57
2023/08/24 08:37:45;;;;;;;2.83;1.87;;;;;;;;;;6155384;23;21001;-57
2023/08/24 08:40:13;;;;;;;2.40;2.20;;;;;;;;;;6156103;23;20706;-57
2023/08/24 08:42:40;;;;;;;6.87;2.37;;;;;;;;;;6155649;23;20782;-59
2023/08/24 08:45:10;;;;;;;2.57;2.17;;;;;;;;;;6155614;23;20493;-60
2023/08/24 08:47:37;;;;;;;2.37;2.17;;;;;;;;;;6155791;23;20435;-60
2023/08/24 08:50:04;;;;;;;4.03;1.90;;;;;;;;;;6155323;23;20490;-59
2023/08/24 08:52:31;;;;;;;1.80;1.70;;;;;;;;;;6155471;23;20490;-59
2023/08/24 08:54:59;;;;;;;2.30;2.07;;;;;;;;;;6155264;23;20510;-59
2023/08/24 08:57:26;;;;;;;7.03;2.23;;;;;;;;;;6155525;23;20559;-59
2023/08/24 08:59:54;;;;;;;2.23;1.83;;;;;;;;;;6155118;23;20458;-58
2023/08/24 09:02:21;;;;;;;4.40;2.27;;;;;;;;;;6155499;23;20502;-59
2023/08/24 09:04:49;;;;;;;2.33;1.90;;;;;;;;;;6155371;23;20705;-59
2023/08/24 09:07:16;;;;;;;3.30;1.90;;;;;;;;;;6155541;23;20407;-59
2023/08/24 09:09:44;;;;;;;2.10;2.00;;;;;;;;;;6154322;23;20489;-59
2023/08/24 09:12:12;;;;;;;2.10;1.83;;;;;;;;;;6155635;23;20449;-61
2023/08/24 09:14:39;;;;;;;3.90;1.70;;;;;;;;;;6155691;23;20503;-60
2023/08/24 09:17:06;;;;;;;2.20;2.00;;;;;;;;;;6155481;23;20473;-61
2023/08/24 09:19:35;;;;;;;4.27;1.90;;;;;;;;;;6155305;23;20438;-61
2023/08/24 09:22:03;;;;;;;2.40;1.70;;;;;;;;;;6154981;23;20910;-59
2023/08/24 09:24:31;;;;;;;2.20;1.73;;;;;;;;;;6155591;23;20495;-61
2023/08/24 09:26:58;;;;;;;2.50;1.60;;;;;;;;;;6155532;23;20410;-59
2023/08/24 09:29:26;;;;;;;2.70;2.03;;;;;;;;;;6155325;23;20783;-60
2023/08/24 09:31:53;;;;;;;1.57;1.47;;;;;;;;;;6155705;23;20406;-59
2023/08/24 09:34:21;;;;;;;2.30;1.77;;;;;;;;;;6155683;23;20465;-59
2023/08/24 09:36:48;;;;;;;3.20;1.90;;;;;;;;;;6155324;23;20443;-59
2023/08/24 09:39:19;;;;;;;2.40;1.67;;;;;;;;;;6155353;23;20407;-61
2023/08/24 09:41:47;;;;;;;1.70;1.60;;;;;;;;;;6155123;23;20875;-61
2023/08/24 09:44:14;;;;;;;2.00;1.90;;;;;;;;;;6155242;23;20407;-59
2023/08/24 09:46:42;;;;;;;2.40;1.73;;;;;;;;;;6155323;23;20410;-61
2023/08/24 09:49:10;;;;;;;2.43;1.77;;;;;;;;;;6155096;23;20430;-60
2023/08/24 09:51:38;;;;;;;1.50;1.40;;;;;;;;;;6154674;23;20461;-59
2023/08/24 09:54:08;;;;;;;2.83;1.83;;;;;;;;;;6154316;23;20465;-61
2023/08/24 09:56:36;;;;;;;1.57;1.47;;;;;;;;;;6155240;23;20489;-61
2023/08/24 09:59:05;;;;;;;2.20;2.00;;;;;;;;;;6155521;23;20486;-61
2023/08/24 10:01:32;;;;;;;2.40;1.77;;;;;;;;;;6155203;23;20486;-63
2023/08/24 10:04:01;;;;;;;2.13;1.93;;;;;;;;;;6155076;23;20438;-62
2023/08/24 10:06:29;;;;;;;4.83;2.30;;;;;;;;;;6156396;23;20409;-58
2023/08/24 10:09:00;;;;;;;1.60;1.50;;;;;;;;;;6157124;23;20772;-60
2023/08/24 10:11:28;;;;;;;2.13;1.83;;;;;;;;;;6157104;23;20392;-59
2023/08/24 10:13:59;;;;;;;1.70;1.60;;;;;;;;;;6157284;23;20482;-60
2023/08/24 10:16:26;;;;;;;1.90;1.80;;;;;;;;;;6157087;23;20394;-58
2023/08/24 10:18:53;;;;;;;3.40;1.67;;;;;;;;;;6157456;23;20410;-59
2023/08/24 10:21:21;;;;;;;4.03;2.00;;;;;;;;;;6157295;23;20486;-59
2023/08/24 10:23:49;;;;;;;2.33;1.60;;;;;;;;;;6157411;23;20490;-59
2023/08/24 10:26:17;;;;;;;3.07;1.67;;;;;;;;;;6157377;23;20489;-71
2023/08/24 10:28:44;;;;;;;2.17;1.57;;;;;;;;;;6166473;23;20930;-70
2023/08/24 10:31:11;;;;;;;1.67;1.57;;;;;;;;;;6157140;23;20403;-70
2023/08/24 10:33:38;;;;;;;1.53;1.43;;;;;;;;;;6156600;23;20784;-73
2023/08/24 10:36:06;;;;;;;1.50;1.40;;;;;;;;;;6156681;23;20478;-69
2023/08/24 10:38:36;;;;;;;5.00;1.77;;;;;;;;;;6156562;23;20450;-67
2023/08/24 10:41:04;;;;;;;2.30;2.00;;;;;;;;;;6156613;23;20410;-64
2023/08/24 10:43:31;;;;;;;2.47;1.70;;;;;;;;;;6166603;23;20883;-69
2023/08/24 10:45:58;;;;;;;1.93;1.83;;;;;;;;;;6156824;23;20491;-65
2023/08/24 10:48:25;;;;;;;3.17;1.83;;;;;;;;;;6156690;23;20413;-65
2023/08/24 10:51:10;;;;;;;2.10;1.90;;;;;;;;;;6156222;23;20466;-64
2023/08/24 10:53:41;;;;;;;1.90;1.80;;;;;;;;;;6155340;23;20485;-73
2023/08/24 10:56:12;;;;;;;3.80;2.03;;;;;;;;;;6156595;23;20953;-66
2023/08/24 10:58:39;;;;;;;2.80;1.50;;;;;;;;;;6156417;23;20454;-75
2023/08/24 11:01:05;;;;;;;1.60;1.50;;;;;;;;;;6156696;23;20802;-67
2023/08/24 11:03:33;;;;;;;1.60;1.40;;;;;;;;;;6156452;23;20498;-66
2023/08/24 11:06:00;;;;;;;1.73;1.30;;;;;;;;;;6156534;23;20411;-65
2023/08/24 11:08:41;;;;;;;4.40;2.43;;;;;;;;;;6156555;23;20497;-65
2023/08/24 11:11:19;;;;;;;3.47;2.00;;;;;;;;;;6155754;23;20477;-65
2023/08/24 11:14:01;;;;;;;2.73;2.53;;;;;;;;;;6156437;23;20478;-70
2023/08/24 11:16:40;;;;;;;2.03;1.93;;;;;;;;;;6155125;23;20498;-65
2023/08/24 11:19:08;;;;;;;1.90;1.70;;;;;;;;;;6156072;23;20403;-66
2023/08/24 11:21:35;;;;;;;5.73;2.27;;;;;;;;;;6156146;23;20453;-68
2023/08/24 11:24:03;;;;;;;2.23;2.13;;;;;;;;;;6156311;23;20779;-63
2023/08/24 11:26:32;;;;;;;2.50;1.73;;;;;;;;;;6156506;23;20466;-67
2023/08/24 11:28:59;;;;;;;2.30;2.10;;;;;;;;;;6156446;23;20494;-65
2023/08/24 11:31:27;;;;;;;4.00;1.70;;;;;;;;;;6156348;23;20403;-73
2023/08/24 11:33:56;;;;;;;3.50;2.87;;;;;;;;;;6155758;23;20403;-68
2023/08/24 11:36:24;;;;;;;3.13;2.33;;;;;;;;;;6155917;23;20403;-77
2023/08/24 11:38:53;;;;;;;3.17;2.23;;;;;;;;;;6156186;23;20450;-65
2023/08/24 11:41:21;;;;;;;2.90;2.30;;;;;;;;;;6156093;23;20493;-68
2023/08/24 11:43:50;;;;;;;2.80;2.60;;;;;;;;;;6155097;23;20411;-67
2023/08/24 11:46:18;;;;;;;2.53;2.33;;;;;;;;;;6156033;23;20444;-67
2023/08/24 11:48:45;;;;;;;2.70;2.50;;;;;;;;;;6156080;23;20717;-68
2023/08/24 11:51:12;;;;;;;2.70;2.50;;;;;;;;;;6155525;23;20487;-67
2023/08/24 11:53:40;;;;;;;2.73;2.27;;;;;;;;;;6155990;23;20415;-68
2023/08/24 11:56:10;;;;;;;2.30;2.10;;;;;;;;;;6155996;23;20445;-66
2023/08/24 11:58:38;;;;;;;4.87;2.47;;;;;;;;;;6154588;23;20474;-75
2023/08/24 12:01:07;;;;;;;2.50;2.10;;;;;;;;;;6155941;23;20495;-73
2023/08/24 12:03:34;;;;;;;2.70;2.50;;;;;;;;;;6156002;23;20502;-71
2023/08/24 12:06:01;;;;;;;2.37;2.17;;;;;;;;;;6155922;23;20411;-75
2023/08/24 12:08:28;;;;;;;4.03;2.73;;;;;;;;;;6155792;23;20421;-75
2023/08/24 12:10:55;;;;;;;2.57;2.37;;;;;;;;;;6155797;23;20493;-73
2023/08/24 12:13:23;;;;;;;3.37;2.50;;;;;;;;;;6155610;23;20486;-72
2023/08/24 12:15:52;;;;;;;5.33;2.60;;;;;;;;;;6155935;23;20953;-72
2023/08/24 12:18:20;;;;;;;3.27;2.30;;;;;;;;;;6155756;23;20446;-71
2023/08/24 12:20:49;;;;;;;2.57;2.37;;;;;;;;;;6156014;23;20435;-69
2023/08/24 12:23:15;;;;;;;4.20;2.30;;;;;;;;;;6153672;23;20419;-69
2023/08/24 12:25:44;;;;;;;2.00;1.90;;;;;;;;;;6155472;23;20435;-69
2023/08/24 12:28:12;;;;;;;5.80;2.17;;;;;;;;;;6155595;23;20498;-69
2023/08/24 12:30:46;;;;;;;2.97;2.47;;;;;;;;;;6155279;23;20899;-68
2023/08/24 12:33:23;;;;;;;5.00;2.60;;;;;;;;;;6155716;23;20494;-68
2023/08/24 12:35:50;;;;;;;5.60;1.67;;;;;;;;;;6155696;23;20477;-68
2023/08/24 12:38:17;;;;;;;3.47;2.10;;;;;;;;;;6155175;23;20950;-68
2023/08/24 12:40:44;;;;;;;2.43;2.23;;;;;;;;;;6155655;23;20506;-68
2023/08/24 12:43:11;;;;;;;2.33;2.10;;;;;;;;;;6155819;23;20806;-68
2023/08/24 12:45:38;;;;;;;3.00;1.80;;;;;;;;;;6155753;23;20411;-68
2023/08/24 12:48:06;;;;;;;2.80;2.60;;;;;;;;;;6155879;23;20482;-68
2023/08/24 12:50:35;;;;;;;7.20;2.23;;;;;;;;;;6155518;23;20534;-68
2023/08/24 12:53:02;;;;;;;1.83;1.73;;;;;;;;;;6155247;23;20497;-68
2023/08/24 12:55:30;;;;;;;2.30;2.10;;;;;;;;;;6155570;23;20415;-68
2023/08/24 12:57:57;;;;;;;2.87;2.00;;;;;;;;;;6155339;23;20514;-68
2023/08/24 13:00:24;;;;;;;4.63;2.20;;;;;;;;;;6155546;23;20716;-68
2023/08/24 13:02:51;;;;;;;2.10;1.90;;;;;;;;;;6155636;23;20494;-68
2023/08/24 13:05:18;;;;;;;2.80;2.60;;;;;;;;;;6155694;23;20494;-68
2023/08/24 13:07:46;;;;;;;2.00;1.90;;;;;;;;;;6155780;23;20407;-68
2023/08/24 13:10:14;;;;;;;3.87;1.67;;;;;;;;;;6155759;23;20410;-68
2023/08/24 13:12:41;;;;;;;2.20;2.00;;;;;;;;;;6155545;23;20693;-68
2023/08/24 13:15:08;;;;;;;2.60;2.13;;;;;;;;;;6155500;23;20763;-68
2023/08/24 13:17:35;;;;;;;2.80;2.40;;;;;;;;;;6155129;23;20918;-68
2023/08/24 13:20:03;;;;;;;2.03;1.90;;;;;;;;;;6155503;23;20494;-68
2023/08/24 13:22:30;;;;;;;2.30;2.10;;;;;;;;;;6155456;23;20407;-68
2023/08/24 13:24:58;;;;;;;4.63;2.20;;;;;;;;;;6155274;23;20768;-68
2023/08/24 13:27:25;;;;;;;2.43;1.90;;;;;;;;;;6154208;23;20985;-68
2023/08/24 13:29:56;;;;;;;2.43;2.33;;;;;;;;;;6155391;23;20486;-68
2023/08/24 13:32:23;;;;;;;2.40;2.20;;;;;;;;;;6155500;23;20391;-68
2023/08/24 13:34:50;;;;;;;2.40;2.20;;;;;;;;;;6155362;23;20489;-68
2023/08/24 13:37:17;;;;;;;3.93;2.20;;;;;;;;;;6155525;23;20494;-68
2023/08/24 13:39:44;;;;;;;2.27;1.87;;;;;;;;;;6155158;23;20521;-68
2023/08/24 13:42:12;;;;;;;3.13;1.60;;;;;;;;;;6154496;23;20438;-68
2023/08/24 13:44:39;;;;;;;2.33;2.00;;;;;;;;;;6155882;23;20414;-68
2023/08/24 13:47:06;;;;;;;1.93;1.83;;;;;;;;;;6154679;23;20481;-68
2023/08/24 13:49:33;;;;;;;2.87;2.20;;;;;;;;;;6154715;23;20509;-69
2023/08/24 13:52:00;;;;;;;1.70;1.60;;;;;;;;;;6155270;23;20395;-69
2023/08/24 13:54:27;;;;;;;2.30;2.00;;;;;;;;;;6155170;23;20494;-68
2023/08/24 13:56:54;;;;;;;2.07;1.97;;;;;;;;;;6155192;23;20441;-68
2023/08/24 13:59:22;;;;;;;2.23;1.90;;;;;;;;;;6155138;23;20449;-68
2023/08/24 14:01:49;;;;;;;2.38;2.00;;;;;;;;;;6155108;23;20495;-68
2023/08/24 14:04:16;;;;;;;2.30;2.10;;;;;;;;;;6155030;23;20245;-68
2023/08/24 14:06:43;;;;;;;1.90;1.80;;;;;;;;;;6155317;23;20493;-68
2023/08/24 14:09:10;;;;;;;2.03;1.93;;;;;;;;;;6155113;23;20494;-69
2023/08/24 14:11:37;;;;;;;3.10;2.10;;;;;;;;;;6155121;23;20489;-68
2023/08/24 14:14:04;;;;;;;1.90;1.77;;;;;;;;;;6155159;23;20773;-68
2023/08/24 14:16:32;;;;;;;2.13;1.60;;;;;;;;;;6155165;23;20486;-69
2023/08/24 14:18:59;;;;;;;3.00;2.27;;;;;;;;;;6154781;23;20522;-69
2023/08/24 14:21:26;;;;;;;2.77;2.50;;;;;;;;;;6155343;23;20712;-68
2023/08/24 14:23:53;;;;;;;1.90;1.80;;;;;;;;;;6155453;23;20495;-68
2023/08/24 14:26:20;;;;;;;2.23;2.13;;;;;;;;;;6155254;23;20494;-68
2023/08/24 14:28:51;;;;;;;1.73;1.63;;;;;;;;;;6155292;23;20498;-68
2023/08/24 14:31:18;;;;;;;2.90;2.70;;;;;;;;;;6155332;23;20801;-68
2023/08/24 14:33:46;;;;;;;2.90;2.00;;;;;;;;;;6155233;23;20494;-68
2023/08/24 14:36:13;;;;;;;2.73;2.20;;;;;;;;;;6155471;23;20446;-68
2023/08/24 14:38:40;;;;;;;8.30;2.67;;;;;;;;;;6155447;23;20822;-68
2023/08/24 14:41:07;;;;;;;2.80;2.53;;;;;;;;;;6155408;23;20414;-68
2023/08/24 14:43:34;;;;;;;2.30;1.87;;;;;;;;;;6155475;23;20434;-68
2023/08/24 14:46:01;;;;;;;3.27;2.20;;;;;;;;;;6155551;23;20458;-68